Airfield :
LOGIN :

Register | Disclaimer

   EN    FR    IT 

 










Legend :    VFR   Marginal VFR   IFR   Intensive IFR   Very Intensive IFR
Visi :
Ceiling :
>= 8 km
>= 3000ft
5 to 8 km
1000 to 3000 ft
1500m to 5 km
500 to 1000 ft
800 to 1500m
200 to 500 ft
< 800m
< 200 ft
Symbols :   Thunderstorms  Fog  Heavy snow  Heavy precipitations  Wind > 20 kt
SIGMETs :     Misc.  Thunderstorms  Icing  Turbulence  Mountain Waves  Volcanic Ashes






- Airport Elevation : 294 ft
- IATA code : NAP


LIRN - Naples Capodichino

CURRENT METAR :
  • 241750Z AUTO 26004KT 9999 NCD 25/03 Q1011

EXPIRED METARs :
  • 241720Z AUTO 24005KT 9999 NCD 26/05 Q1010
  • 241650Z AUTO 24004KT 200V270 9999 NCD 26/04 Q1010
  • 241620Z AUTO 23005KT 200V270 9999 NCD 27/02 Q1010
  • 241550Z AUTO 24007KT 9999 NCD 27/01 Q1010
  • 241520Z AUTO 24007KT 200V280 9999 NCD 28/01 Q1011

TAF TAF LIRN
Valid from the 24 at 18:00 until the 25 at 18:00 UTC


241700Z 2418/2518 VRB05KT 9999 SCT030
BECMG 2508/2510 23010KT
BECMG 2516/2518 VRB05KT



MET'MAP, your aeronautical weather chart ! - Copyright ORBIFLY December 2007 - Disclaimer

ORBIFLY MET'MAP TEAM :

Programming & Development : Alexandra Zaïnal
Original concept : Baudouin d'Aumeries
Technical & hardware support : Manuel Goepfert
Assistance : Marc-Olivier Méhu

Contact : metmap@orbifly.com




SOURCES & CREDITS :

   NOAA